Time;durP1;ratioP1;P1;durP2;ratioP2;P2;SDS_P1;SDS_P2;PMS_P1;PMS_P2;Temp;Humidity;BMP_temperature;BMP_pressure;BME280_temperature;BME280_humidity;BME280_pressure;Samples;Min_cycle;Max_cycle;Signal;HPM_P1;HPM_P2
2024/04/12 00:00:58;;;;;;;;;21.00;18.50;;;;;15.26;70.66;103159.88;2152657;26;2832502;-73
2024/04/12 00:02:11;;;;;;;;;22.50;19.00;;;;;15.25;70.77;103163.41;2166706;26;2828342;-72
2024/04/12 00:03:23;;;;;;;;;26.00;18.00;;;;;15.25;70.86;103163.41;2176832;26;3588793;-72
2024/04/12 00:04:35;;;;;;;;;20.00;17.00;;;;;15.23;70.53;103154.63;2179355;26;2831464;-72
2024/04/12 00:05:47;;;;;;;;;22.00;20.00;;;;;15.21;70.42;103159.06;2141640;26;2834636;-72
2024/04/12 00:06:59;;;;;;;;;20.00;17.67;;;;;15.20;70.86;103160.84;2145404;26;3571033;-72
2024/04/12 00:08:13;;;;;;;;;19.67;17.00;;;;;15.19;70.98;103153.78;2165687;26;3564029;-72
2024/04/12 00:09:29;;;;;;;;;21.67;18.33;;;;;15.17;71.24;103150.28;2177878;26;3568905;-72
2024/04/12 00:10:40;;;;;;;;;23.67;18.00;;;;;15.16;71.37;103153.84;2163685;26;3556455;-72
2024/04/12 00:11:53;;;;;;;;;14.33;14.33;;;;;15.17;70.95;103150.28;2161319;26;2808645;-72
2024/04/12 00:13:05;;;;;;;;;21.00;18.00;;;;;15.17;70.66;103147.63;2162818;26;3568946;-72
2024/04/12 00:14:16;;;;;;;;;21.50;17.50;;;;;15.15;71.12;103144.13;2170966;26;2830416;-72
2024/04/12 00:15:31;;;;;;;;;22.33;17.67;;;;;15.13;70.46;103137.97;2176490;25;3565844;-73
2024/04/12 00:16:43;;;;;;;;;11.00;11.00;;;;;15.13;70.77;103136.22;2167975;26;2787753;-72
2024/04/12 00:17:55;;;;;;;;;17.33;15.00;;;;;15.14;70.67;103139.72;2139440;26;3541889;-72
2024/04/12 00:19:12;;;;;;;;;11.50;10.00;;;;;15.13;70.67;103140.63;2161466;26;2795006;-72
2024/04/12 00:20:28;;;;;;;;;22.33;19.33;;;;;15.10;70.71;103127.41;2163813;26;3574393;-73
2024/04/12 00:21:46;;;;;;;;;17.33;16.67;;;;;15.09;71.25;103125.69;2165494;26;3558544;-72
2024/04/12 00:22:57;;;;;;;;;19.00;18.00;;;;;15.06;70.38;103122.16;2176637;26;2835618;-72
2024/04/12 00:24:11;;;;;;;;;17.33;15.67;;;;;15.09;70.90;103136.28;2147756;26;3553302;-72
2024/04/12 00:25:23;;;;;;;;;21.67;18.67;;;;;15.07;70.25;103125.69;2176300;26;3556442;-72
2024/04/12 00:26:34;;;;;;;;;20.00;17.50;;;;;15.06;70.72;103134.56;2180750;26;2831407;-72
2024/04/12 00:27:45;;;;;;;;;17.00;14.00;;;;;15.05;71.25;103127.50;2157142;26;2800446;-72
2024/04/12 00:29:00;;;;;;;;;16.50;15.00;;;;;15.04;71.38;103134.56;2158402;26;2799126;-72
2024/04/12 00:30:20;;;;;;;;;19.67;19.67;;;;;15.04;71.40;103129.25;2136681;26;3564986;-72
2024/04/12 00:31:42;;;;;;;;;19.33;16.33;;;;;15.03;71.17;103132.81;2163436;26;3561630;-72
2024/04/12 00:32:57;;;;;;;;;17.50;14.50;;;;;15.03;71.57;103130.16;2165484;26;2804373;-72
2024/04/12 00:34:10;;;;;;;;;14.00;12.50;;;;;15.02;71.16;103125.75;2201207;26;1836202;-72
2024/04/12 00:35:34;;;;;;;;;17.67;14.83;;;;;15.01;71.74;103128.44;2185868;26;1834667;-73
2024/04/12 00:36:48;;;;;;;;;17.50;13.50;;;;;15.00;70.92;103130.19;2138070;26;2802274;-73
2024/04/12 00:38:03;;;;;;;;;15.33;15.33;;;;;15.00;70.82;103130.19;2126284;26;2799368;-72
2024/04/12 00:39:35;;;;;;;;;17.00;16.00;;;;;15.00;71.05;103132.84;2154609;26;2811679;-72
2024/04/12 00:40:52;;;;;;;;;22.00;17.00;;;;;14.99;71.30;103133.72;2164703;26;2827277;-72
2024/04/12 00:42:07;;;;;;;;;17.50;15.00;;;;;14.99;71.27;103131.09;2164957;26;2812749;-72
2024/04/12 00:43:20;;;;;;;;;21.67;16.67;;;;;14.98;71.19;103131.13;2171128;26;3561686;-72
2024/04/12 00:44:31;;;;;;;;;22.00;16.00;;;;;14.95;71.23;103118.78;2177701;26;2835661;-72
2024/04/12 00:45:48;;;;;;;;;19.67;14.67;;;;;14.98;71.23;103124.06;2174911;26;3539752;-73
2024/04/12 00:47:04;;;;;;;;;19.67;18.00;;;;;14.96;71.20;103126.69;2177492;26;3572383;-72
2024/04/12 00:48:16;;;;;;;;;18.67;15.67;;;;;14.95;71.22;103127.63;2178408;25;3561696;-73
2024/04/12 00:49:30;;;;;;;;;17.00;16.50;;;;;14.95;71.69;103124.97;2178328;26;2823459;-72
2024/04/12 00:50:46;;;;;;;;;17.00;16.00;;;;;14.95;70.54;103124.09;2150683;26;2829528;-73
2024/04/12 00:52:02;;;;;;;;;16.00;15.00;;;;;14.93;71.56;103124.13;2164931;26;2797084;-72
2024/04/12 00:53:22;;;;;;;;;19.67;16.00;;;;;14.93;72.12;103117.94;2163576;26;3558566;-72
2024/04/12 00:54:33;;;;;;;;;17.50;16.50;;;;;14.93;72.04;103118.81;2175159;26;2824214;-73
2024/04/12 00:55:47;;;;;;;;;19.00;15.67;;;;;14.92;70.68;103114.41;2151162;26;2824310;-73
2024/04/12 00:57:02;;;;;;;;;18.00;16.00;;;;;14.92;71.32;103117.06;2177128;26;2809651;-73
2024/04/12 00:58:14;;;;;;;;;9.00;8.50;;;;;14.92;71.28;103118.81;2171359;26;2770028;-73
2024/04/12 00:59:26;;;;;;;;;17.50;16.00;;;;;14.90;71.48;103120.63;2153093;26;2814781;-73
2024/04/12 01:00:37;;;;;;;;;9.50;8.50;;;;;14.89;71.92;103122.38;2164712;26;2751265;-73
2024/04/12 01:01:48;;;;;;;;;20.00;17.50;;;;;14.89;71.88;103129.47;2162725;26;2827276;-73
2024/04/12 01:02:59;;;;;;;;;16.33;16.33;;;;;14.88;71.28;103120.66;2148251;26;2824261;-73
2024/04/12 01:04:12;;;;;;;;;19.67;16.67;;;;;14.88;70.97;103128.59;2173834;25;3558525;-73
2024/04/12 01:05:23;;;;;;;;;16.50;13.50;;;;;14.85;71.48;103124.22;2177981;26;2799463;-73
2024/04/12 01:06:35;;;;;;;;;16.33;16.00;;;;;14.85;71.28;103129.50;2148176;26;3552201;-73
2024/04/12 01:07:48;;;;;;;;;19.00;17.00;;;;;14.84;70.51;103121.56;2174718;26;3559559;-73
2024/04/12 01:09:11;;;;;;;;;16.67;15.33;;;;;14.83;71.42;103125.09;2178171;25;3547099;-73
2024/04/12 01:10:24;;;;;;;;;14.00;11.00;;;;;14.81;71.60;103117.19;2175608;26;2793997;-73
2024/04/12 01:11:39;;;;;;;;;14.17;13.00;;;;;14.81;70.67;103118.94;2185321;26;1820476;-73
2024/04/12 01:12:57;;;;;;;;;16.00;14.00;;;;;14.79;70.46;103104.88;2138104;26;2791896;-73
2024/04/12 01:14:09;;;;;;;;;18.00;16.00;;;;;14.79;71.66;103118.09;2167002;26;2822072;-73
2024/04/12 01:15:20;;;;;;;;;17.00;14.00;;;;;14.79;70.79;103118.94;2151046;26;2805447;-73
2024/04/12 01:16:32;;;;;;;;;18.67;17.00;;;;;14.76;71.22;103120.78;2136675;26;3554319;-73
2024/04/12 01:17:44;;;;;;;;;18.33;15.33;;;;;14.74;71.26;103118.16;2180085;26;2814773;-73
2024/04/12 01:18:55;;;;;;;;;18.50;14.00;;;;;14.74;71.73;103119.00;2181859;26;2808512;-73
2024/04/12 01:20:07;;;;;;;;;13.00;9.50;;;;;14.75;71.45;103127.84;2149607;26;2776309;-73
2024/04/12 01:21:21;;;;;;;;;14.00;13.67;;;;;14.75;70.79;103127.84;2172574;26;1831507;-73
2024/04/12 01:22:35;;;;;;;;;17.67;14.00;;;;;14.72;71.34;103123.44;2138114;26;2807602;-73
2024/04/12 01:23:48;;;;;;;;;15.50;14.00;;;;;14.72;71.36;103126.09;2168912;26;2795082;-73
2024/04/12 01:25:02;;;;;;;;;16.00;15.33;;;;;14.72;71.83;103130.50;2139013;26;2805534;-73
2024/04/12 01:26:17;;;;;;;;;20.67;18.00;;;;;14.69;71.44;103126.13;2163378;26;3562695;-73
2024/04/12 01:27:34;;;;;;;;;18.33;16.00;;;;;14.69;71.23;103127.91;2162331;26;3546006;-73
2024/04/12 01:28:48;;;;;;;;;15.67;15.33;;;;;14.67;71.54;103124.41;2161810;26;2814877;-73
2024/04/12 01:30:00;;;;;;;;;16.00;16.00;;;;;14.65;71.21;103124.41;2166244;26;2821373;-73
2024/04/12 01:31:14;;;;;;;;;19.67;15.67;;;;;14.66;71.25;103125.31;2174446;26;3553369;-73
2024/04/12 01:32:26;;;;;;;;;14.67;14.67;;;;;14.65;71.14;103120.88;2164687;26;3533769;-72
2024/04/12 01:33:40;;;;;;;;;21.50;15.50;;;;;14.65;71.24;103139.41;2175363;26;2816865;-73
2024/04/12 01:34:55;;;;;;;;;13.83;13.50;;;;;14.63;71.83;103135.03;2172637;26;1823256;-72
2024/04/12 01:36:10;;;;;;;;;19.00;15.50;;;;;14.63;71.53;103124.44;2146559;26;2814817;-73
2024/04/12 01:37:21;;;;;;;;;17.50;14.50;;;;;14.62;71.76;103122.69;2149955;26;2801276;-73
2024/04/12 01:38:36;;;;;;;;;18.50;16.00;;;;;14.62;71.02;103117.38;2139777;26;2821007;-73
2024/04/12 01:39:48;;;;;;;;;22.00;17.00;;;;;14.63;70.87;103118.28;2138586;26;3567889;-73
2024/04/12 01:41:05;;;;;;;;;18.33;15.67;;;;;14.61;71.21;103113.00;2163761;26;3543970;-73
2024/04/12 01:42:16;;;;;;;;;16.50;16.00;;;;;14.62;71.17;103114.75;2177489;26;2827378;-73
2024/04/12 01:43:31;;;;;;;;;15.50;13.00;;;;;14.61;71.43;103107.72;2178099;26;2790859;-73
2024/04/12 01:45:13;;;;;;;;;23.00;16.33;;;;;14.59;71.03;103109.47;2176588;26;3556434;-73
2024/04/12 01:46:14;;;;;;;;;16.00;16.00;;;;;14.59;71.34;103106.84;2177364;26;2817934;-73
2024/04/12 01:47:27;;;;;;;;;17.00;14.50;;;;;14.55;71.03;103097.19;2143616;25;2794951;-73
2024/04/12 01:48:40;;;;;;;;;16.40;16.20;;;;;14.56;70.76;103096.31;2170117;26;2822091;-73
2024/04/12 01:49:53;;;;;;;;;16.50;15.00;;;;;14.52;71.75;103095.47;2149636;26;2798123;-73
2024/04/12 01:51:05;;;;;;;;;18.00;17.00;;;;;14.54;71.58;103090.16;2150877;26;3557492;-73
2024/04/12 01:52:25;;;;;;;;;16.00;14.33;;;;;14.55;70.78;103088.38;2175085;26;2779392;-73
2024/04/12 01:53:40;;;;;;;;;15.50;15.50;;;;;14.56;71.43;103092.78;2179747;26;2811732;-73
2024/04/12 01:55:05;;;;;;;;;18.67;18.33;;;;;14.55;71.31;103094.53;2177683;26;3563742;-73
2024/04/12 01:56:21;;;;;;;;;16.67;14.33;;;;;14.54;71.90;103092.81;2210725;26;1835652;-73
2024/04/12 01:57:41;;;;;;;;;16.33;16.33;;;;;14.53;71.68;103093.69;2151548;26;2812836;-73
2024/04/12 01:58:54;;;;;;;;;15.50;15.50;;;;;14.53;71.72;103096.34;2166864;26;2805453;-73
2024/04/12 02:00:06;;;;;;;;;17.33;14.33;;;;;14.52;71.00;103091.94;2176819;26;3550188;-73
2024/04/12 02:01:18;;;;;;;;;19.50;17.00;;;;;14.53;71.62;103093.69;2163044;26;2821015;-72
2024/04/12 02:02:32;;;;;;;;;15.00;13.33;;;;;14.51;71.43;103093.72;2176818;26;2795261;-72
2024/04/12 02:03:44;;;;;;;;;14.00;12.00;;;;;14.52;71.71;103091.94;2178617;26;2791881;-73
2024/04/12 02:04:56;;;;;;;;;16.67;15.67;;;;;14.51;70.81;103084.91;2176949;26;2821035;-73
2024/04/12 02:06:08;;;;;;;;;16.67;13.67;;;;;14.51;72.02;103087.53;2175519;26;2799273;-73
2024/04/12 02:07:19;;;;;;;;;19.50;17.00;;;;;14.50;71.27;103086.66;2165836;26;2813755;-72
2024/04/12 02:08:35;;;;;;;;;25.00;17.00;;;;;14.48;71.49;103077.00;2173929;26;3570441;-73
2024/04/12 02:09:48;;;;;;;;;19.00;16.00;;;;;14.49;72.47;103084.91;2179441;26;2821049;-73
2024/04/12 02:11:05;;;;;;;;;24.00;15.50;;;;;14.50;71.48;103091.06;2151489;26;2835601;-73
2024/04/12 02:12:16;;;;;;;;;20.00;16.50;;;;;14.48;71.62;103082.28;2151936;26;2822092;-73
2024/04/12 02:13:35;;;;;;;;;17.50;15.50;;;;;14.47;71.77;103083.19;2148551;26;2816836;-72
2024/04/12 02:14:50;;;;;;;;;7.17;5.50;;;;;14.47;71.14;103086.69;2178151;26;2744007;-72
2024/04/12 02:16:05;;;;;;;;;22.00;19.00;;;;;14.46;70.82;103089.38;2153540;26;2830448;-72
2024/04/12 02:17:16;;;;;;;;;18.00;15.50;;;;;14.47;71.69;103091.97;2178485;26;2813748;-73
2024/04/12 02:18:32;;;;;;;;;16.00;13.00;;;;;14.47;72.33;103088.47;2161218;26;2800215;-73
2024/04/12 02:19:46;;;;;;;;;17.33;16.00;;;;;14.43;71.58;103084.09;2140228;26;2819092;-72
2024/04/12 02:21:04;;;;;;;;;16.33;15.67;;;;;14.43;71.93;103085.00;2164897;26;3541843;-73
2024/04/12 02:22:15;;;;;;;;;17.50;15.00;;;;;14.44;71.75;103085.88;2175919;26;2809645;-73
2024/04/12 02:23:27;;;;;;;;;18.33;16.33;;;;;14.39;71.47;103078.88;2150834;26;3562124;-73
2024/04/12 02:24:43;;;;;;;;;20.00;16.00;;;;;14.42;71.92;103085.00;2161049;26;3558776;-72
2024/04/12 02:25:58;;;;;;;;;16.00;15.00;;;;;14.39;71.64;103078.88;2165413;26;2812710;-73
2024/04/12 02:27:10;;;;;;;;;17.33;17.00;;;;;14.38;71.80;103077.09;2163196;26;3567899;-72
2024/04/12 02:28:22;;;;;;;;;18.00;14.67;;;;;14.38;71.45;103076.22;2163386;26;2800218;-73
2024/04/12 02:29:36;;;;;;;;;17.67;17.00;;;;;14.37;71.64;103077.97;2162323;26;2823205;-73
2024/04/12 02:30:57;;;;;;;;;18.00;15.00;;;;;14.37;71.59;103071.84;2178151;25;2804361;-73
2024/04/12 02:32:09;;;;;;;;;19.00;16.00;;;;;14.35;71.56;103077.13;2174275;26;3552302;-73
2024/04/12 02:33:24;;;;;;;;;16.33;14.00;;;;;14.32;71.93;103071.88;2163707;26;2792196;-73
2024/04/12 02:34:36;;;;;;;;;18.00;14.67;;;;;14.34;72.16;103071.88;2163308;26;2804455;-73
2024/04/12 02:35:59;;;;;;;;;15.00;14.00;;;;;14.33;72.44;103075.41;2164195;26;2793937;-72
2024/04/12 02:37:11;;;;;;;;;19.67;16.67;;;;;14.34;71.90;103082.44;2138343;26;2811713;-72
2024/04/12 02:38:22;;;;;;;;;16.50;15.50;;;;;14.32;71.26;103074.50;2173675;26;2802316;-73
2024/04/12 02:39:40;;;;;;;;;16.17;15.17;;;;;14.32;71.42;103076.31;2186467;26;1834622;-73
2024/04/12 02:40:52;;;;;;;;;15.67;13.00;;;;;14.32;71.88;103082.44;2146106;26;3522088;-73
2024/04/12 02:42:05;;;;;;;;;15.50;15.50;;;;;14.31;72.46;103080.72;2176450;25;2814857;-73
2024/04/12 02:43:17;;;;;;;;;15.00;14.00;;;;;14.31;71.72;103080.72;2154270;25;2790808;-73
2024/04/12 02:44:29;;;;;;;;;20.33;15.00;;;;;14.31;71.44;103078.06;2144331;26;2805557;-73
2024/04/12 02:45:57;;;;;;;;;15.67;15.67;;;;;14.29;71.73;103074.56;2163613;26;2820056;-73
2024/04/12 02:47:08;;;;;;;;;19.00;17.50;;;;;14.28;71.70;103078.97;2164106;26;2831476;-73
2024/04/12 02:48:20;;;;;;;;;21.00;19.00;;;;;14.27;71.64;103073.72;2148396;26;3567824;-73
2024/04/12 02:49:32;;;;;;;;;13.00;13.00;;;;;14.25;71.42;103080.75;2176258;26;2791985;-73
2024/04/12 02:50:44;;;;;;;;;20.00;15.00;;;;;14.26;72.22;103082.53;2139086;26;3553346;-73
2024/04/12 02:51:59;;;;;;;;;18.67;16.33;;;;;14.23;71.85;103077.25;2161972;26;3556414;-72
2024/04/12 02:53:17;;;;;;;;;12.50;12.50;;;;;14.23;72.26;103083.44;2177869;26;2786661;-73
2024/04/12 02:54:29;;;;;;;;;17.00;14.33;;;;;14.20;71.98;103079.97;2139696;26;2801733;-73
2024/04/12 02:55:42;;;;;;;;;16.60;15.60;;;;;14.23;72.00;103087.84;2185448;26;2812701;-73
2024/04/12 02:56:53;;;;;;;;;16.00;13.00;;;;;14.23;71.33;103091.38;2151126;26;2786725;-73
2024/04/12 02:58:05;;;;;;;;;19.67;17.00;;;;;14.23;72.10;103085.19;2151308;25;3564812;-72
2024/04/12 02:59:17;;;;;;;;;14.67;14.33;;;;;14.22;71.86;103087.00;2171210;26;2801248;-73
2024/04/12 03:00:29;;;;;;;;;18.00;13.50;;;;;14.21;71.96;103084.34;2177595;25;2797448;-73
2024/04/12 03:01:41;;;;;;;;;17.33;15.00;;;;;14.20;71.45;103087.91;2138584;26;2808612;-73
2024/04/12 03:02:54;;;;;;;;;16.00;14.00;;;;;14.21;71.80;103094.94;2171276;26;2806568;-72
2024/04/12 03:04:09;;;;;;;;;16.00;15.50;;;;;14.19;71.73;103087.03;2172547;26;2816904;-72
2024/04/12 03:05:23;;;;;;;;;18.00;16.67;;;;;14.20;71.62;103086.09;2127392;26;3555393;-73
2024/04/12 03:06:34;;;;;;;;;13.50;13.00;;;;;14.18;71.98;103085.25;2166723;26;2791946;-73
2024/04/12 03:07:46;;;;;;;;;16.00;13.50;;;;;14.17;71.82;103081.72;2172560;26;2800207;-73
2024/04/12 03:09:00;;;;;;;;;18.00;16.00;;;;;14.18;71.83;103090.53;2176133;26;2827276;-73
2024/04/12 03:10:23;;;;;;;;;16.33;16.00;;;;;14.17;71.65;103088.81;2151488;26;2819016;-73
2024/04/12 03:11:36;;;;;;;;;17.67;15.67;;;;;14.15;71.34;103088.81;2178292;26;3559562;-72
2024/04/12 03:12:51;;;;;;;;;16.00;15.00;;;;;14.16;72.15;103092.34;2180318;25;2811656;-72
2024/04/12 03:14:09;;;;;;;;;16.33;15.33;;;;;14.14;70.94;103095.00;2147259;26;2797102;-73
2024/04/12 03:15:21;;;;;;;;;15.00;13.33;;;;;14.12;71.52;103091.50;2163980;26;2796534;-73
2024/04/12 03:16:33;;;;;;;;;22.67;17.00;;;;;14.11;71.26;103089.75;2161727;26;3567915;-73
2024/04/12 03:17:48;;;;;;;;;18.00;14.33;;;;;14.11;71.25;103092.38;2162067;26;3542935;-73
2024/04/12 03:19:07;;;;;;;;;15.83;14.50;;;;;14.10;71.62;103093.25;2197551;26;1831538;-73
2024/04/12 03:20:20;;;;;;;;;21.67;16.67;;;;;14.07;71.76;103091.53;2145523;26;3549147;-72
2024/04/12 03:21:35;;;;;;;;;14.17;14.17;;;;;14.07;71.72;103098.59;2211758;26;1820053;-72
2024/04/12 03:22:46;;;;;;;;;18.00;17.00;;;;;14.07;72.03;103093.31;2155864;25;2822120;-73
2024/04/12 03:23:57;;;;;;;;;16.50;15.50;;;;;14.04;71.87;103091.56;2144016;26;2811669;-73
2024/04/12 03:25:09;;;;;;;;;15.50;13.00;;;;;14.04;72.05;103088.94;2135731;26;2788698;-73
2024/04/12 03:26:24;;;;;;;;;15.50;14.50;;;;;14.04;71.66;103093.34;2142734;26;2787644;-72
2024/04/12 03:27:38;;;;;;;;;23.33;20.33;;;;;14.04;72.10;103090.69;2145687;26;3571069;-72
2024/04/12 03:28:58;;;;;;;;;18.50;16.50;;;;;14.02;71.50;103096.00;2180433;25;2815826;-73
2024/04/12 03:30:15;;;;;;;;;19.33;15.33;;;;;14.02;71.54;103093.38;2176577;26;3540826;-72
2024/04/12 03:31:28;;;;;;;;;17.67;16.00;;;;;14.01;71.51;103094.25;2177816;26;2816868;-72
2024/04/12 03:32:44;;;;;;;;;18.00;17.00;;;;;14.01;71.74;103094.25;2176690;25;3559853;-72
2024/04/12 03:33:56;;;;;;;;;18.00;18.00;;;;;14.00;71.46;103100.41;2178992;26;2826589;-73
2024/04/12 03:35:08;;;;;;;;;21.00;17.67;;;;;14.00;71.56;103102.19;2176145;26;3560600;-72
2024/04/12 03:38:24;;;;;;;;;15.50;15.00;;;;;13.99;71.48;103103.97;2175833;25;2810975;-72
2024/04/12 03:40:38;;;;;;;;;20.00;15.50;;;;;13.95;71.30;103100.47;2209457;25;1837802;-72
2024/04/12 03:42:04;;;;;;;;;21.33;18.00;;;;;13.95;71.73;103100.47;2138050;26;3554350;-73
2024/04/12 03:43:15;;;;;;;;;16.00;16.00;;;;;13.94;71.51;103108.41;2166067;26;2824211;-72
2024/04/12 03:44:32;;;;;;;;;18.50;16.50;;;;;13.94;71.23;103111.94;2155696;25;2826252;-72
2024/04/12 03:45:44;;;;;;;;;21.00;17.33;;;;;13.92;71.41;103113.72;2151075;25;3556517;-72
2024/04/12 03:46:57;;;;;;;;;21.00;17.33;;;;;13.94;71.53;103116.34;2175376;26;2824223;-72
2024/04/12 03:48:13;;;;;;;;;18.50;18.00;;;;;13.92;72.15;103108.44;2176325;26;2818976;-72
2024/04/12 03:49:25;;;;;;;;;17.00;14.50;;;;;13.91;71.36;103104.03;2139120;26;2804393;-72
2024/04/12 03:50:41;;;;;;;;;18.00;18.00;;;;;13.92;71.40;103102.28;2139369;26;3557546;-72
2024/04/12 03:51:56;;;;;;;;;18.50;17.00;;;;;13.90;72.34;103096.97;2165917;26;2811649;-73
2024/04/12 03:53:16;;;;;;;;;17.67;15.83;;;;;13.92;72.14;103104.91;2207951;25;1836080;-72
2024/04/12 03:54:29;;;;;;;;;18.00;14.67;;;;;13.93;71.69;103102.25;2149347;25;3548106;-72
2024/04/12 03:55:45;;;;;;;;;18.00;16.67;;;;;13.91;71.60;103104.03;2162736;26;3539783;-72
2024/04/12 03:57:06;;;;;;;;;15.67;15.67;;;;;13.90;72.17;103096.97;2165061;26;2824227;-72
2024/04/12 03:58:22;;;;;;;;;17.67;16.17;;;;;13.89;71.25;103100.53;2196235;26;1833566;-72
2024/04/12 03:59:37;;;;;;;;;14.67;14.33;;;;;13.89;71.34;103103.16;2172321;26;1817987;-72
2024/04/12 04:00:51;;;;;;;;;17.00;17.00;;;;;13.90;72.05;103098.75;2142420;26;2821100;-72
2024/04/12 04:02:09;;;;;;;;;10.00;9.50;;;;;13.89;72.04;103097.88;2146272;26;2764794;-73
2024/04/12 04:03:32;;;;;;;;;18.00;16.50;;;;;13.88;71.67;103101.41;2165167;26;2825217;-72
2024/04/12 04:04:44;;;;;;;;;15.67;14.67;;;;;13.88;72.48;103100.56;2162691;26;2816920;-72
2024/04/12 04:05:56;;;;;;;;;17.00;14.50;;;;;13.84;71.74;103092.63;2151517;26;2803386;-73
2024/04/12 04:07:10;;;;;;;;;18.33;16.00;;;;;13.87;71.82;103097.03;2150026;26;2824791;-72
2024/04/12 04:08:23;;;;;;;;;14.80;13.80;;;;;13.86;72.25;103089.09;2193351;26;2786873;-72
2024/04/12 04:09:35;;;;;;;;;18.67;13.67;;;;;13.86;71.64;103089.09;2135063;26;3539776;-72
2024/04/12 04:10:49;;;;;;;;;18.33;17.00;;;;;13.86;71.90;103089.97;2163349;26;2811797;-72
2024/04/12 04:12:00;;;;;;;;;18.00;15.50;;;;;13.84;72.11;103091.75;2179057;26;2809844;-72
2024/04/12 04:13:12;;;;;;;;;16.00;14.00;;;;;13.85;72.50;103098.81;2161276;26;2806471;-72
2024/04/12 04:14:26;;;;;;;;;16.00;16.00;;;;;13.83;71.52;103088.22;2139474;26;3556457;-72
2024/04/12 04:15:49;;;;;;;;;16.00;15.00;;;;;13.83;71.75;103090.00;2161760;26;3536639;-72
2024/04/12 04:17:01;;;;;;;;;16.33;16.33;;;;;13.84;72.16;103089.13;2162604;26;3535596;-72
2024/04/12 04:18:17;;;;;;;;;15.33;14.67;;;;;13.84;72.08;103091.75;2161044;26;2808569;-72
2024/04/12 04:19:35;;;;;;;;;19.80;16.60;;;;;13.84;72.10;103091.75;2186412;26;2815800;-73
2024/04/12 04:20:47;;;;;;;;;20.33;16.00;;;;;13.82;72.18;103093.53;2152910;26;2828431;-72
2024/04/12 04:22:03;;;;;;;;;17.50;15.00;;;;;13.84;72.27;103097.03;2177896;26;2811946;-73
2024/04/12 04:23:17;;;;;;;;;14.00;12.00;;;;;13.82;71.97;103086.50;2178190;25;2804413;-72
2024/04/12 04:24:30;;;;;;;;;18.67;17.33;;;;;13.83;71.85;103087.34;2153603;25;3543140;-72
2024/04/12 04:25:44;;;;;;;;;11.00;10.50;;;;;13.81;72.74;103083.84;2177075;26;2780440;-72
2024/04/12 04:26:55;;;;;;;;;16.00;14.00;;;;;13.81;72.27;103087.38;2177231;26;2807590;-72
2024/04/12 04:28:09;;;;;;;;;14.50;12.00;;;;;13.82;72.07;103088.25;2150914;25;2790804;-72
2024/04/12 04:29:21;;;;;;;;;15.67;14.67;;;;;13.81;72.20;103083.84;2151858;25;2805965;-72
2024/04/12 04:30:35;;;;;;;;;14.60;14.60;;;;;13.81;72.11;103092.66;2194562;26;2799576;-72
2024/04/12 04:31:51;;;;;;;;;16.00;15.00;;;;;13.79;71.85;103089.16;2148890;26;2800305;-73
2024/04/12 04:33:03;;;;;;;;;18.00;15.00;;;;;13.80;72.04;103087.41;2165311;26;2813856;-72
2024/04/12 04:34:15;;;;;;;;;15.00;15.00;;;;;13.79;72.07;103089.16;2162149;26;3534567;-72
2024/04/12 04:35:27;;;;;;;;;14.00;14.00;;;;;13.77;71.82;103087.41;2179208;26;2797152;-72
2024/04/12 04:36:39;;;;;;;;;17.00;14.67;;;;;13.79;72.42;103089.16;2162663;26;2803453;-72
2024/04/12 04:37:52;;;;;;;;;8.67;5.00;;;;;13.78;72.25;103086.53;2164435;26;2746101;-72
2024/04/12 04:39:03;;;;;;;;;15.00;14.00;;;;;13.79;72.60;103086.50;2163250;26;2794436;-72
2024/04/12 04:40:17;;;;;;;;;11.00;10.00;;;;;13.79;72.33;103088.28;2139588;26;2762784;-72
2024/04/12 04:41:32;;;;;;;;;14.50;12.00;;;;;13.79;72.23;103091.81;2195852;26;1828413;-72
2024/04/12 04:42:45;;;;;;;;;17.00;17.00;;;;;13.80;72.13;103098.81;2151259;26;2824160;-72
2024/04/12 04:43:56;;;;;;;;;16.50;16.00;;;;;13.78;71.99;103095.31;2151136;26;2821066;-72
2024/04/12 04:45:17;;;;;;;;;16.29;13.43;;;;;13.81;72.52;103094.41;2181985;26;1827298;-72
2024/04/12 04:46:28;;;;;;;;;10.00;10.00;;;;;13.82;72.17;103096.19;2176708;26;2775214;-72
2024/04/12 04:47:41;;;;;;;;;14.60;13.60;;;;;13.82;72.02;103102.34;2167919;26;2799188;-72
2024/04/12 04:48:56;;;;;;;;;12.00;12.00;;;;;13.81;72.58;103100.59;2150575;26;2787701;-72
2024/04/12 04:50:12;;;;;;;;;15.00;13.00;;;;;13.82;72.16;103099.72;2177054;26;2789826;-72
2024/04/12 04:51:23;;;;;;;;;15.50;15.50;;;;;13.82;72.09;103096.19;2139512;26;2800183;-72
2024/04/12 04:52:38;;;;;;;;;14.17;13.50;;;;;13.83;71.89;103101.44;2176832;26;1834564;-72
2024/04/12 04:53:53;;;;;;;;;15.33;12.67;;;;;13.83;72.09;103100.56;2151590;26;2810647;-72
2024/04/12 04:55:07;;;;;;;;;14.50;14.50;;;;;13.82;72.51;103098.84;2177979;25;2794271;-72
2024/04/12 04:56:24;;;;;;;;;15.50;13.33;;;;;13.81;72.32;103100.59;2186645;26;1824611;-72
2024/04/12 04:57:38;;;;;;;;;16.00;14.00;;;;;13.81;72.40;103099.72;2153881;25;2807926;-72
2024/04/12 04:58:50;;;;;;;;;12.00;11.00;;;;;13.80;71.89;103096.19;2150179;25;2783554;-72
2024/04/12 05:00:06;;;;;;;;;18.00;15.00;;;;;13.80;71.93;103098.81;2140275;26;2824220;-73
2024/04/12 05:01:18;;;;;;;;;14.00;14.00;;;;;13.79;72.59;103091.81;2163400;26;2804397;-72
2024/04/12 05:02:34;;;;;;;;;15.50;13.00;;;;;13.80;73.02;103095.34;2170933;26;2798159;-72
2024/04/12 05:03:49;;;;;;;;;17.00;17.00;;;;;13.82;71.83;103101.47;2179816;25;2820032;-72
2024/04/12 05:05:05;;;;;;;;;18.33;16.00;;;;;13.81;72.31;103100.59;2152039;25;3539764;-73
2024/04/12 05:06:24;;;;;;;;;15.50;12.00;;;;;13.82;72.47;103104.13;2181500;25;2790844;-72
2024/04/12 05:07:35;;;;;;;;;15.50;12.00;;;;;13.79;71.92;103099.72;2172674;26;2803681;-72
2024/04/12 05:08:47;;;;;;;;;17.00;14.50;;;;;13.80;71.75;103100.63;2153099;26;2800210;-72
2024/04/12 05:09:58;;;;;;;;;15.50;12.00;;;;;13.80;71.79;103101.47;2177008;26;2790852;-72
2024/04/12 05:11:10;;;;;;;;;16.00;14.33;;;;;13.82;71.73;103104.13;2149851;26;2805436;-73
2024/04/12 05:12:22;;;;;;;;;19.00;16.00;;;;;13.83;72.44;103105.84;2180320;25;2823126;-72
2024/04/12 05:13:38;;;;;;;;;11.00;10.00;;;;;13.81;71.67;103105.88;2177251;26;2763754;-73
2024/04/12 05:14:54;;;;;;;;;23.00;17.20;;;;;13.81;72.78;103105.00;2198321;26;2813700;-72
2024/04/12 05:16:15;;;;;;;;;24.00;17.50;;;;;13.82;72.48;103105.00;2155483;25;2834577;-72
2024/04/12 05:17:29;;;;;;;;;16.67;16.67;;;;;13.82;72.12;103101.47;2153182;25;2805454;-72
2024/04/12 05:18:40;;;;;;;;;18.50;13.50;;;;;13.82;72.37;103105.00;2177755;26;2795005;-72
2024/04/12 05:19:53;;;;;;;;;12.00;12.00;;;;;13.83;72.32;103106.75;2151922;26;2803268;-72
2024/04/12 05:21:05;;;;;;;;;21.33;17.00;;;;;13.81;72.91;103102.34;2145923;26;3555426;-72
2024/04/12 05:22:19;;;;;;;;;18.00;17.33;;;;;13.85;72.17;103109.38;2164990;26;2823236;-72
2024/04/12 05:23:34;;;;;;;;;14.50;13.17;;;;;13.84;72.65;103103.22;2209539;26;1825257;-72
2024/04/12 05:24:47;;;;;;;;;17.00;16.00;;;;;13.84;72.62;103099.69;2151614;26;3543942;-72
2024/04/12 05:25:59;;;;;;;;;21.33;16.33;;;;;13.84;72.22;103100.56;2174995;26;3559575;-72
2024/04/12 05:27:11;;;;;;;;;16.33;15.33;;;;;13.88;73.11;103100.56;2178653;25;2812804;-72
2024/04/12 05:28:26;;;;;;;;;14.50;14.50;;;;;13.87;72.71;103106.72;2189871;25;2803339;-72
2024/04/12 05:29:40;;;;;;;;;17.00;15.67;;;;;13.89;72.99;103108.47;2153383;25;3552292;-72
2024/04/12 05:30:54;;;;;;;;;17.50;16.00;;;;;13.89;72.25;103112.88;2180166;25;2806452;-72
2024/04/12 05:32:09;;;;;;;;;17.60;17.20;;;;;13.89;72.74;103111.09;2198246;26;2818363;-72
2024/04/12 05:33:23;;;;;;;;;19.00;17.00;;;;;13.88;72.79;103109.34;2136602;26;2816884;-72